createdAt,value
2022-12-11T00:00:50.046Z,42.15
2022-12-11T00:03:22.587Z,40.60
2022-12-11T00:05:55.768Z,39.78
2022-12-11T00:08:28.355Z,40.55
2022-12-11T00:11:01.045Z,35.55
2022-12-11T00:13:33.636Z,42.83
2022-12-11T00:16:06.764Z,37.85
2022-12-11T00:18:39.875Z,41.85
2022-12-11T00:21:15.373Z,40.40
2022-12-11T00:23:48.128Z,34.97
2022-12-11T00:26:21.069Z,36.95
2022-12-11T00:28:56.521Z,45.33
2022-12-11T00:31:31.896Z,35.17
2022-12-11T00:34:04.546Z,41.40
2022-12-11T00:36:37.093Z,38.22
2022-12-11T00:39:12.032Z,50.33
2022-12-11T00:41:44.544Z,44.95
2022-12-11T00:44:17.065Z,66.88
2022-12-11T00:46:50.028Z,39.38
2022-12-11T00:49:22.577Z,41.70
2022-12-11T00:51:55.126Z,41.25
2022-12-11T00:54:27.648Z,40.25
2022-12-11T00:57:00.296Z,32.58
2022-12-11T00:59:32.868Z,38.33
2022-12-11T01:02:05.426Z,32.63
2022-12-11T01:04:38.102Z,55.65
2022-12-11T01:07:10.839Z,37.70
2022-12-11T01:10:01.833Z,32.15
2022-12-11T01:12:34.673Z,32.72
2022-12-11T01:15:08.043Z,39.88
2022-12-11T01:17:40.960Z,36.15
2022-12-11T01:20:13.532Z,28.27
2022-12-11T01:22:46.271Z,30.83
2022-12-11T01:25:19.120Z,26.90
2022-12-11T01:27:54.025Z,28.45
2022-12-11T01:30:26.804Z,38.30
2022-12-11T01:33:00.807Z,30.88
2022-12-11T01:35:33.401Z,27.02
2022-12-11T01:38:05.958Z,42.60
2022-12-11T01:40:38.548Z,30.08
2022-12-11T01:43:11.831Z,27.85
2022-12-11T01:45:48.171Z,30.80
2022-12-11T01:48:27.397Z,31.00
2022-12-11T01:51:04.994Z,26.85
2022-12-11T01:53:45.749Z,27.27
2022-12-11T01:56:19.221Z,30.63
2022-12-11T01:58:57.508Z,32.20
2022-12-11T02:01:54.208Z,27.98
2022-12-11T02:04:29.440Z,26.08
2022-12-11T02:07:03.583Z,27.20
2022-12-11T02:09:41.276Z,25.80
2022-12-11T02:12:39.243Z,28.75
2022-12-11T02:15:40.184Z,25.92
2022-12-11T02:18:47.992Z,22.95
2022-12-11T02:21:28.460Z,26.95
2022-12-11T02:24:16.235Z,31.25
2022-12-11T02:27:07.727Z,25.67
2022-12-11T02:29:53.732Z,23.60
2022-12-11T02:32:53.255Z,24.88
2022-12-11T02:35:40.755Z,28.63
2022-12-11T02:38:25.135Z,21.20
2022-12-11T02:41:00.705Z,24.67
2022-12-11T02:43:37.196Z,24.30
2022-12-11T02:48:47.227Z,20.45
2022-12-11T02:54:00.492Z,19.83
2022-12-11T02:56:46.357Z,20.48
2022-12-11T02:59:35.689Z,18.50
2022-12-11T03:02:08.621Z,17.70
2022-12-11T03:04:44.715Z,20.63
2022-12-11T03:07:27.473Z,20.98
2022-12-11T03:10:00.760Z,16.83
2022-12-11T03:12:39.686Z,15.90
2022-12-11T03:15:17.151Z,16.75
2022-12-11T03:18:09.737Z,16.13
2022-12-11T03:20:56.675Z,17.30
2022-12-11T03:23:42.069Z,13.90
2022-12-11T03:26:18.768Z,15.68
2022-12-11T03:31:50.185Z,14.00
2022-12-11T03:34:43.963Z,13.65
2022-12-11T03:37:19.814Z,15.68
2022-12-11T03:39:59.213Z,14.90
2022-12-11T03:42:32.633Z,10.25
2022-12-11T03:45:08.737Z,14.15
2022-12-11T03:47:46.234Z,17.92
2022-12-11T03:50:24.777Z,19.00
2022-12-11T03:53:03.705Z,14.07
2022-12-11T03:55:40.549Z,17.08
2022-12-11T03:58:13.370Z,15.55
2022-12-11T04:00:48.843Z,13.35
2022-12-11T04:03:21.806Z,14.38
2022-12-11T04:05:56.017Z,13.40
2022-12-11T04:08:28.646Z,13.15
2022-12-11T04:11:23.009Z,17.48
2022-12-11T04:14:14.156Z,14.40
2022-12-11T04:16:46.956Z,11.60
2022-12-11T04:19:52.690Z,16.63
2022-12-11T04:22:44.126Z,12.50
2022-12-11T04:25:19.966Z,15.55
2022-12-11T04:27:53.420Z,15.52
2022-12-11T04:30:32.336Z,23.67
2022-12-11T04:33:09.472Z,14.63
2022-12-11T04:35:42.004Z,16.63
2022-12-11T04:38:16.013Z,15.27
2022-12-11T04:40:48.631Z,16.73
2022-12-11T04:43:22.104Z,13.48
2022-12-11T04:46:11.227Z,21.70
2022-12-11T04:48:45.249Z,14.18
2022-12-11T04:51:18.722Z,15.90
2022-12-11T04:53:51.219Z,18.27
2022-12-11T04:56:23.972Z,16.92
2022-12-11T04:58:56.543Z,17.17
2022-12-11T05:01:29.224Z,14.52
2022-12-11T05:04:02.304Z,14.20
2022-12-11T05:06:34.896Z,14.90
2022-12-11T05:09:13.921Z,13.85
2022-12-11T05:11:46.495Z,21.38
2022-12-11T05:14:19.852Z,14.45
2022-12-11T05:16:52.406Z,18.38
2022-12-11T05:19:25.920Z,13.15
2022-12-11T05:21:58.486Z,17.27
2022-12-11T05:24:33.302Z,11.90
2022-12-11T05:27:05.972Z,14.77
2022-12-11T05:29:38.676Z,14.02
2022-12-11T05:32:11.234Z,15.63
2022-12-11T05:34:43.953Z,11.88
2022-12-11T05:37:16.673Z,14.57
2022-12-11T05:39:49.348Z,18.27
2022-12-11T05:42:27.165Z,13.80
2022-12-11T05:45:01.479Z,12.55
2022-12-11T05:47:35.773Z,14.45
2022-12-11T05:50:09.092Z,15.32
2022-12-11T05:52:42.011Z,11.77
2022-12-11T05:55:15.013Z,16.73
2022-12-11T05:57:47.619Z,16.15
2022-12-11T06:00:20.505Z,15.93
2022-12-11T06:02:53.141Z,14.35
2022-12-11T06:05:26.839Z,12.75
2022-12-11T06:07:59.400Z,13.43
2022-12-11T06:10:32.853Z,16.55
2022-12-11T06:13:08.341Z,14.25
2022-12-11T06:15:41.027Z,13.07
2022-12-11T06:18:13.764Z,10.40
2022-12-11T06:20:46.324Z,12.98
2022-12-11T06:23:22.064Z,13.43
2022-12-11T06:25:54.677Z,14.55
2022-12-11T06:28:27.328Z,13.80
2022-12-11T06:31:01.120Z,15.65
2022-12-11T06:33:35.376Z,14.63
2022-12-11T06:36:16.691Z,17.58
2022-12-11T06:38:50.437Z,15.43
2022-12-11T06:41:23.042Z,13.43
2022-12-11T06:43:55.763Z,14.98
2022-12-11T06:46:28.475Z,13.88
2022-12-11T06:49:01.098Z,14.43
2022-12-11T06:51:33.848Z,14.25
2022-12-11T06:54:06.391Z,19.13
2022-12-11T06:56:39.014Z,16.02
2022-12-11T06:59:12.781Z,16.70
2022-12-11T07:01:45.816Z,21.65
2022-12-11T07:04:18.401Z,21.30
2022-12-11T07:06:51.152Z,23.88
2022-12-11T07:09:24.692Z,15.98
2022-12-11T07:11:57.644Z,21.20
2022-12-11T07:14:31.190Z,17.05
2022-12-11T07:17:03.795Z,15.23
2022-12-11T07:19:36.384Z,14.98
2022-12-11T07:22:09.057Z,15.30
2022-12-11T07:24:41.958Z,18.45
2022-12-11T07:27:14.521Z,16.42
2022-12-11T07:29:47.048Z,14.13
2022-12-11T07:32:19.665Z,14.13
2022-12-11T07:34:52.437Z,17.15
2022-12-11T07:37:25.309Z,23.90
2022-12-11T07:39:57.949Z,13.20
2022-12-11T07:42:30.560Z,15.68
2022-12-11T07:45:03.409Z,14.65
2022-12-11T07:47:36.062Z,20.50
2022-12-11T07:50:10.297Z,15.63
2022-12-11T07:52:42.872Z,16.92
2022-12-11T07:55:17.065Z,14.05
2022-12-11T07:57:49.807Z,19.00
2022-12-11T08:00:22.687Z,19.90
2022-12-11T08:02:55.308Z,15.30
2022-12-11T08:05:27.965Z,19.02
2022-12-11T08:08:00.592Z,15.80
2022-12-11T08:10:33.505Z,17.48
2022-12-11T08:13:06.321Z,15.20
2022-12-11T08:15:39.085Z,15.90
2022-12-11T08:18:11.782Z,16.00
2022-12-11T08:20:44.327Z,14.07
2022-12-11T08:23:17.088Z,13.80
2022-12-11T08:25:49.790Z,19.10
2022-12-11T08:28:23.953Z,20.08
2022-12-11T08:30:57.549Z,15.07
2022-12-11T08:33:30.562Z,14.52
2022-12-11T08:36:05.423Z,19.15
2022-12-11T08:38:38.393Z,18.00
2022-12-11T08:41:15.922Z,15.27
2022-12-11T08:43:48.768Z,18.20
2022-12-11T08:46:32.556Z,13.27
2022-12-11T08:49:05.153Z,15.65
2022-12-11T08:51:38.043Z,20.83
2022-12-11T08:54:11.746Z,15.45
2022-12-11T08:56:44.604Z,18.70
2022-12-11T08:59:18.739Z,17.67
2022-12-11T09:01:52.298Z,12.20
2022-12-11T09:04:27.161Z,18.48
2022-12-11T09:06:59.817Z,15.45
2022-12-11T09:09:32.439Z,17.45
2022-12-11T09:12:07.902Z,16.60
2022-12-11T09:14:40.427Z,16.95
2022-12-11T09:17:12.963Z,16.13
2022-12-11T09:19:48.073Z,14.82
2022-12-11T09:22:20.687Z,16.40
2022-12-11T09:24:56.260Z,17.90
2022-12-11T09:27:32.237Z,14.93
2022-12-11T09:30:05.768Z,25.23
2022-12-11T09:32:39.825Z,19.92
2022-12-11T09:35:14.969Z,19.63
2022-12-11T09:37:47.543Z,18.65
2022-12-11T09:40:20.638Z,19.45
2022-12-11T09:43:03.622Z,20.85
2022-12-11T09:45:36.294Z,16.60
2022-12-11T09:48:11.762Z,20.30
2022-12-11T09:50:48.159Z,22.65
2022-12-11T09:53:34.279Z,17.30
2022-12-11T09:56:26.112Z,13.00
2022-12-11T09:59:35.705Z,18.20
2022-12-11T10:02:45.242Z,15.93
2022-12-11T10:05:42.791Z,18.05
2022-12-11T10:09:12.225Z,17.92
2022-12-11T10:12:33.733Z,15.95
2022-12-11T10:15:23.603Z,18.83
2022-12-11T10:18:04.958Z,13.90
2022-12-11T10:20:40.456Z,29.25
2022-12-11T10:23:21.931Z,49.17
2022-12-11T10:26:23.133Z,23.65
2022-12-11T10:29:01.349Z,25.15
2022-12-11T10:31:58.915Z,20.38
2022-12-11T10:34:37.709Z,15.70
2022-12-11T10:37:10.303Z,21.10
2022-12-11T10:39:43.030Z,14.85
2022-12-11T10:42:22.484Z,15.95
2022-12-11T10:45:04.873Z,18.92
2022-12-11T10:47:37.630Z,11.95
2022-12-11T10:50:26.215Z,19.05
2022-12-11T10:53:01.947Z,20.75
2022-12-11T10:55:45.657Z,14.65
2022-12-11T10:58:26.724Z,14.38
2022-12-11T11:01:16.761Z,19.27
2022-12-11T11:04:06.647Z,22.65
2022-12-11T11:06:39.288Z,15.75
2022-12-11T11:09:36.053Z,20.15
2022-12-11T11:12:28.311Z,17.55
2022-12-11T11:15:15.528Z,14.70
2022-12-11T11:17:55.510Z,18.17
2022-12-11T11:20:31.706Z,17.88
2022-12-11T11:23:15.518Z,18.85
2022-12-11T11:26:07.522Z,14.20
2022-12-11T11:28:47.994Z,13.40
2022-12-11T11:31:31.502Z,15.68
2022-12-11T11:34:16.112Z,18.88
2022-12-11T11:37:05.979Z,15.80
2022-12-11T11:39:45.255Z,17.42
2022-12-11T11:42:36.372Z,18.63
2022-12-11T11:45:31.616Z,13.75
2022-12-11T11:48:45.516Z,14.70
2022-12-11T11:51:30.711Z,15.02
2022-12-11T11:54:37.424Z,18.25
2022-12-11T11:57:23.236Z,18.17
2022-12-11T12:00:10.823Z,16.00
2022-12-11T12:02:47.110Z,15.48
2022-12-11T12:05:32.022Z,14.95
2022-12-11T12:08:53.815Z,15.25
2022-12-11T12:11:32.740Z,14.75
2022-12-11T12:17:41.163Z,17.25
2022-12-11T12:20:38.918Z,15.43
2022-12-11T12:23:52.999Z,14.65
2022-12-11T12:26:37.234Z,13.00
2022-12-11T12:29:44.212Z,23.33
2022-12-11T12:32:55.379Z,14.98
2022-12-11T12:35:36.020Z,12.98
2022-12-11T12:38:32.883Z,11.50
2022-12-11T12:41:44.948Z,13.48
2022-12-11T12:44:22.610Z,14.38
2022-12-11T12:47:13.283Z,10.43
2022-12-11T12:49:50.098Z,16.40
2022-12-11T12:52:39.518Z,12.60
2022-12-11T12:55:23.635Z,14.00
2022-12-11T12:58:01.001Z,16.48
2022-12-11T13:00:42.662Z,12.75
2022-12-11T13:03:22.492Z,13.68
2022-12-11T13:06:24.737Z,12.70
2022-12-11T13:09:16.389Z,11.30
2022-12-11T13:11:55.120Z,11.48
2022-12-11T13:14:33.655Z,13.50
2022-12-11T13:17:27.006Z,11.95
2022-12-11T13:20:22.762Z,18.42
2022-12-11T13:23:10.277Z,19.17
2022-12-11T13:25:57.265Z,13.68
2022-12-11T13:28:33.870Z,16.60
2022-12-11T13:31:15.513Z,14.18
2022-12-11T13:33:52.909Z,12.45
2022-12-11T13:36:40.429Z,12.77
2022-12-11T13:39:25.146Z,13.50
2022-12-11T13:42:25.195Z,13.88
2022-12-11T13:44:58.973Z,16.30
2022-12-11T13:47:33.260Z,16.67
2022-12-11T13:50:26.311Z,14.80
2022-12-11T13:53:03.300Z,12.90
2022-12-11T13:55:36.098Z,13.95
2022-12-11T13:58:23.508Z,15.23
2022-12-11T14:01:22.134Z,11.07
2022-12-11T14:04:04.764Z,18.30
2022-12-11T14:06:39.854Z,23.42
2022-12-11T14:09:24.121Z,11.63
2022-12-11T14:11:59.065Z,14.20
2022-12-11T14:14:39.869Z,15.30
2022-12-11T14:17:25.973Z,14.50
2022-12-11T14:20:03.575Z,12.90
2022-12-11T14:22:39.415Z,16.30
2022-12-11T14:25:26.391Z,12.75
2022-12-11T14:27:59.001Z,13.43
2022-12-11T14:30:36.022Z,15.15
2022-12-11T14:33:11.808Z,15.57
2022-12-11T14:35:50.258Z,11.77
2022-12-11T14:38:37.417Z,17.00
2022-12-11T14:41:40.430Z,12.70
2022-12-11T14:44:21.660Z,13.05
2022-12-11T14:47:24.213Z,14.30
2022-12-11T14:52:48.056Z,11.75
2022-12-11T14:55:30.321Z,15.48
2022-12-11T14:58:15.048Z,19.50
2022-12-11T15:01:22.771Z,12.18
2022-12-11T15:04:26.852Z,16.02
2022-12-11T15:07:00.169Z,20.35
2022-12-11T15:09:36.130Z,14.98
2022-12-11T15:12:16.692Z,15.77
2022-12-11T15:14:58.411Z,14.35
2022-12-11T15:17:31.355Z,12.32
2022-12-11T15:20:11.616Z,14.48
2022-12-11T15:22:44.621Z,16.67
2022-12-11T15:25:25.133Z,20.38
2022-12-11T15:28:00.936Z,24.55
2022-12-11T15:30:35.807Z,17.38
2022-12-11T15:33:11.326Z,15.30
2022-12-11T15:35:57.941Z,14.43
2022-12-11T15:38:41.788Z,13.20
2022-12-11T15:41:21.037Z,13.02
2022-12-11T15:43:59.191Z,13.70
2022-12-11T15:46:36.310Z,13.30
2022-12-11T15:49:13.261Z,13.30
2022-12-11T15:51:48.277Z,9.85
2022-12-11T15:54:21.147Z,12.32
2022-12-11T15:56:54.402Z,9.88
2022-12-11T15:59:27.956Z,12.10
2022-12-11T16:02:00.463Z,10.07
2022-12-11T16:04:32.941Z,10.75
2022-12-11T16:07:13.063Z,9.32
2022-12-11T16:09:47.038Z,12.20
2022-12-11T16:12:19.625Z,13.18
2022-12-11T16:14:52.492Z,10.00
2022-12-11T16:17:28.071Z,12.85
2022-12-11T16:20:00.607Z,12.15
2022-12-11T16:22:33.302Z,12.48
2022-12-11T16:25:06.632Z,10.77
2022-12-11T16:27:39.211Z,11.02
2022-12-11T16:30:13.342Z,12.65
2022-12-11T16:32:46.105Z,10.30
2022-12-11T16:35:20.723Z,13.48
2022-12-11T16:37:54.775Z,15.25
2022-12-11T16:40:27.402Z,18.88
2022-12-11T16:42:59.956Z,14.13
2022-12-11T16:45:33.890Z,12.25
2022-12-11T16:48:06.521Z,12.13
2022-12-11T16:50:40.429Z,15.65
2022-12-11T16:53:14.624Z,12.77
2022-12-11T16:55:47.249Z,10.48
2022-12-11T16:58:20.184Z,8.93
2022-12-11T17:00:53.303Z,9.85
2022-12-11T17:03:25.979Z,10.07
2022-12-11T17:05:59.234Z,11.45
2022-12-11T17:08:34.056Z,10.50
2022-12-11T17:11:11.853Z,11.77
2022-12-11T17:13:45.148Z,9.98
2022-12-11T17:16:17.705Z,12.68
2022-12-11T17:18:50.626Z,14.93
2022-12-11T17:21:25.210Z,12.07
2022-12-11T17:23:57.719Z,11.02
2022-12-11T17:26:30.332Z,12.80
2022-12-11T17:29:03.477Z,10.38
2022-12-11T17:31:36.038Z,11.85
2022-12-11T17:34:08.676Z,10.05
2022-12-11T17:36:41.504Z,14.55
2022-12-11T17:39:14.112Z,11.13
2022-12-11T17:41:46.675Z,12.98
2022-12-11T17:44:19.456Z,13.02
2022-12-11T17:46:52.894Z,11.45
2022-12-11T17:49:26.381Z,14.18
2022-12-11T17:51:59.401Z,11.52
2022-12-11T17:54:32.064Z,13.48
2022-12-11T17:57:06.492Z,10.75
2022-12-11T17:59:39.376Z,9.60
2022-12-11T18:02:12.258Z,10.73
2022-12-11T18:04:45.044Z,14.68
2022-12-11T18:07:19.624Z,16.88
2022-12-11T18:09:52.823Z,12.32
2022-12-11T18:12:25.834Z,11.48
2022-12-11T18:15:03.432Z,12.90
2022-12-11T18:17:36.186Z,9.48
2022-12-11T18:20:14.589Z,12.05
2022-12-11T18:22:47.632Z,11.98
2022-12-11T18:25:20.359Z,13.90
2022-12-11T18:27:55.162Z,13.80
2022-12-11T18:30:28.808Z,11.20
2022-12-11T18:33:01.452Z,12.15
2022-12-11T18:35:34.249Z,13.82
2022-12-11T18:38:07.789Z,16.85
2022-12-11T18:40:40.293Z,13.27
2022-12-11T18:43:13.318Z,15.10
2022-12-11T18:45:46.674Z,17.30
2022-12-11T18:48:19.211Z,13.77
2022-12-11T18:50:52.606Z,12.77
2022-12-11T18:53:25.311Z,17.10
2022-12-11T18:56:00.548Z,11.63
2022-12-11T18:58:34.001Z,12.85
2022-12-11T19:01:16.397Z,14.40
2022-12-11T19:03:51.570Z,16.40
2022-12-11T19:06:28.654Z,13.35
2022-12-11T19:09:04.231Z,19.25
2022-12-11T19:11:40.579Z,19.40
2022-12-11T19:14:13.832Z,14.95
2022-12-11T19:16:46.625Z,17.10
2022-12-11T19:19:22.109Z,14.68
2022-12-11T19:21:54.812Z,18.23
2022-12-11T19:24:27.843Z,14.95
2022-12-11T19:27:00.421Z,15.20
2022-12-11T19:29:33.136Z,15.38
2022-12-11T19:32:05.916Z,12.90
2022-12-11T19:34:38.548Z,15.13
2022-12-11T19:37:11.221Z,13.40
2022-12-11T19:39:43.714Z,14.63
2022-12-11T19:42:16.294Z,14.70
2022-12-11T19:44:48.945Z,14.77
2022-12-11T19:47:21.541Z,17.88
2022-12-11T19:49:54.175Z,13.60
2022-12-11T19:52:27.373Z,14.90
2022-12-11T19:55:04.738Z,15.85
2022-12-11T19:57:37.503Z,13.05
2022-12-11T20:00:10.796Z,21.50
2022-12-11T20:02:43.365Z,18.25
2022-12-11T20:05:16.548Z,17.70
2022-12-11T20:07:49.164Z,17.38
2022-12-11T20:10:21.802Z,17.38
2022-12-11T20:12:59.056Z,15.32
2022-12-11T20:15:32.073Z,16.35
2022-12-11T20:18:05.014Z,15.32
2022-12-11T20:20:38.240Z,16.02
2022-12-11T20:23:10.836Z,16.80
2022-12-11T20:25:43.454Z,15.40
2022-12-11T20:28:16.016Z,16.52
2022-12-11T20:30:50.019Z,18.58
2022-12-11T20:33:22.589Z,20.10
2022-12-11T20:35:55.186Z,19.92
2022-12-11T20:38:34.127Z,13.82
2022-12-11T20:41:12.005Z,15.45
2022-12-11T20:43:45.469Z,15.85
2022-12-11T20:46:18.603Z,18.77
2022-12-11T20:48:51.776Z,16.98
2022-12-11T20:51:26.611Z,17.08
2022-12-11T20:53:59.804Z,17.23
2022-12-11T20:56:32.644Z,17.02
2022-12-11T20:59:05.776Z,20.02
2022-12-11T21:01:40.151Z,20.90
2022-12-11T21:04:13.000Z,16.35
2022-12-11T21:06:45.719Z,11.63
2022-12-11T21:09:18.268Z,15.95
2022-12-11T21:11:51.356Z,18.38
2022-12-11T21:14:24.859Z,19.60
2022-12-11T21:16:59.307Z,16.77
2022-12-11T21:19:31.926Z,14.27
2022-12-11T21:22:04.627Z,17.52
2022-12-11T21:24:37.215Z,20.20
2022-12-11T21:27:10.041Z,14.73
2022-12-11T21:29:42.692Z,20.15
2022-12-11T21:32:15.188Z,17.42
2022-12-11T21:34:50.424Z,17.42
2022-12-11T21:37:23.344Z,16.55
2022-12-11T21:40:00.198Z,15.52
2022-12-11T21:42:32.762Z,14.80
2022-12-11T21:47:59.253Z,14.88
2022-12-11T21:50:32.045Z,16.80
2022-12-11T21:53:04.663Z,14.32
2022-12-11T21:55:41.437Z,18.75
2022-12-11T21:58:13.962Z,16.50
2022-12-11T22:00:46.629Z,17.10
2022-12-11T22:03:19.188Z,14.50
2022-12-11T22:05:51.766Z,15.13
2022-12-11T22:08:24.369Z,18.95
2022-12-11T22:10:57.163Z,14.23
2022-12-11T22:13:29.739Z,17.80
2022-12-11T22:16:02.486Z,15.27
2022-12-11T22:18:35.053Z,17.40
2022-12-11T22:21:08.048Z,15.85
2022-12-11T22:23:42.907Z,15.98
2022-12-11T22:26:20.662Z,13.98
2022-12-11T22:28:54.735Z,17.88
2022-12-11T22:31:28.145Z,15.45
2022-12-11T22:34:00.675Z,18.33
2022-12-11T22:36:33.200Z,19.50
2022-12-11T22:39:05.798Z,17.98
2022-12-11T22:41:41.968Z,16.55
2022-12-11T22:44:19.882Z,17.48
2022-12-11T22:46:52.529Z,16.95
2022-12-11T22:49:25.016Z,15.25
2022-12-11T22:51:57.691Z,21.70
2022-12-11T22:54:30.880Z,23.33
2022-12-11T22:57:03.613Z,22.25
2022-12-11T22:59:36.643Z,18.50
2022-12-11T23:02:09.344Z,20.13
2022-12-11T23:04:41.950Z,21.08
2022-12-11T23:07:14.615Z,18.23
2022-12-11T23:09:47.108Z,20.33
2022-12-11T23:12:19.724Z,19.17
2022-12-11T23:14:52.304Z,18.35
2022-12-11T23:17:25.100Z,18.63
2022-12-11T23:19:57.675Z,17.35
2022-12-11T23:22:30.614Z,18.92
2022-12-11T23:25:04.230Z,21.63
2022-12-11T23:27:36.779Z,16.70
2022-12-11T23:30:10.707Z,19.30
2022-12-11T23:32:43.362Z,18.92
2022-12-11T23:35:15.919Z,16.80
2022-12-11T23:37:48.491Z,17.75
2022-12-11T23:40:21.050Z,18.70
2022-12-11T23:42:53.629Z,20.55
2022-12-11T23:45:26.199Z,17.85
2022-12-11T23:47:58.758Z,26.25
2022-12-11T23:50:32.838Z,19.38
2022-12-11T23:53:05.832Z,21.00
2022-12-11T23:55:43.729Z,18.92
2022-12-11T23:58:16.237Z,17.50
